createdAt,value
2023-09-25T00:00:09.647Z,1.63
2023-09-25T00:00:42.490Z,1.70
2023-09-25T00:01:15.109Z,2.20
2023-09-25T00:01:48.346Z,1.90
2023-09-25T00:02:23.332Z,2.17
2023-09-25T00:02:56.266Z,1.87
2023-09-25T00:03:29.320Z,2.10
2023-09-25T00:04:02.056Z,2.13
2023-09-25T00:04:37.137Z,1.87
2023-09-25T00:05:10.249Z,2.20
2023-09-25T00:05:43.946Z,2.07
2023-09-25T00:06:18.924Z,1.97
2023-09-25T00:06:51.549Z,1.80
2023-09-25T00:07:23.886Z,2.03
2023-09-25T00:07:56.347Z,2.00
2023-09-25T00:08:31.423Z,2.33
2023-09-25T00:09:03.887Z,2.10
2023-09-25T00:09:36.326Z,1.70
2023-09-25T00:10:09.006Z,2.00
2023-09-25T00:10:44.613Z,2.20
2023-09-25T00:11:17.019Z,1.73
2023-09-25T00:11:49.555Z,1.83
2023-09-25T00:12:23.104Z,1.83
2023-09-25T00:12:58.121Z,1.80
2023-09-25T00:13:30.544Z,1.80
2023-09-25T00:14:02.920Z,1.70
2023-09-25T00:14:37.876Z,1.80
2023-09-25T00:15:13.853Z,1.70
2023-09-25T00:15:48.056Z,1.57
2023-09-25T00:16:20.567Z,1.83
2023-09-25T00:16:53.043Z,2.10
2023-09-25T00:17:28.619Z,1.60
2023-09-25T00:18:01.120Z,1.90
2023-09-25T00:18:33.680Z,1.77
2023-09-25T00:19:08.950Z,2.00
2023-09-25T00:19:43.304Z,2.00
2023-09-25T00:20:16.283Z,1.80
2023-09-25T00:20:48.675Z,1.63
2023-09-25T00:21:23.657Z,1.60
2023-09-25T00:21:56.030Z,1.80
2023-09-25T00:22:28.721Z,1.83
2023-09-25T00:23:01.415Z,1.57
2023-09-25T00:23:36.395Z,1.83
2023-09-25T00:24:09.611Z,1.87
2023-09-25T00:24:42.483Z,1.57
2023-09-25T00:25:20.130Z,1.47
2023-09-25T00:25:52.621Z,1.40
2023-09-25T00:26:24.969Z,1.77
2023-09-25T00:26:58.268Z,1.50
2023-09-25T00:27:33.282Z,1.40
2023-09-25T00:28:08.703Z,1.40
2023-09-25T00:28:41.949Z,1.57
2023-09-25T00:29:15.574Z,1.50
2023-09-25T00:29:50.623Z,1.23
2023-09-25T00:30:25.676Z,1.30
2023-09-25T00:30:58.050Z,1.47
2023-09-25T00:31:32.024Z,1.77
2023-09-25T00:32:05.391Z,1.60
2023-09-25T00:32:40.464Z,1.60
2023-09-25T00:33:13.980Z,1.70
2023-09-25T00:33:46.680Z,1.60
2023-09-25T00:34:21.785Z,1.70
2023-09-25T00:34:54.496Z,1.60
2023-09-25T00:35:26.907Z,1.70
2023-09-25T00:35:59.284Z,1.57
2023-09-25T00:36:36.059Z,1.63
2023-09-25T00:37:09.249Z,1.87
2023-09-25T00:37:41.683Z,2.00
2023-09-25T00:38:17.270Z,1.50
2023-09-25T00:38:49.912Z,1.40
2023-09-25T00:39:22.511Z,1.50
2023-09-25T00:39:55.081Z,1.63
2023-09-25T00:40:31.322Z,1.80
2023-09-25T00:41:03.718Z,1.43
2023-09-25T00:41:36.103Z,1.90
2023-09-25T00:42:08.562Z,1.57
2023-09-25T00:42:44.762Z,1.40
2023-09-25T00:43:17.223Z,1.83
2023-09-25T00:43:49.612Z,1.50
2023-09-25T00:44:24.005Z,1.40
2023-09-25T00:45:02.248Z,1.97
2023-09-25T00:45:38.294Z,1.53
2023-09-25T00:46:10.762Z,1.40
2023-09-25T00:46:45.825Z,1.60
2023-09-25T00:47:18.483Z,1.30
2023-09-25T00:47:51.923Z,1.40
2023-09-25T00:48:29.830Z,1.50
2023-09-25T00:49:02.421Z,1.57
2023-09-25T00:49:34.903Z,1.60
2023-09-25T00:50:08.770Z,1.40
2023-09-25T00:50:43.761Z,1.53
2023-09-25T00:51:16.237Z,1.37
2023-09-25T00:51:49.589Z,1.30
2023-09-25T00:52:25.377Z,1.40
2023-09-25T00:52:57.898Z,1.70
2023-09-25T00:53:31.358Z,1.60
2023-09-25T00:54:06.501Z,1.57
2023-09-25T00:54:41.650Z,1.30
2023-09-25T00:55:15.268Z,1.40
2023-09-25T00:55:50.821Z,1.47
2023-09-25T00:56:23.438Z,1.50
2023-09-25T00:56:55.832Z,1.50
2023-09-25T00:57:28.503Z,1.60
2023-09-25T00:58:04.492Z,2.00
2023-09-25T00:58:36.872Z,1.80
2023-09-25T00:59:09.557Z,1.50
2023-09-25T00:59:41.962Z,1.63
2023-09-25T01:00:20.755Z,1.83
2023-09-25T01:00:53.898Z,1.60
2023-09-25T01:01:26.409Z,2.10
2023-09-25T01:02:01.430Z,1.50
2023-09-25T01:02:33.953Z,1.93
2023-09-25T01:03:06.704Z,1.90
2023-09-25T01:03:39.311Z,1.30
2023-09-25T01:04:15.280Z,1.50
2023-09-25T01:04:48.314Z,1.80
2023-09-25T01:05:21.009Z,1.40
2023-09-25T01:05:53.421Z,1.60
2023-09-25T01:06:28.591Z,1.67
2023-09-25T01:07:01.938Z,1.70
2023-09-25T01:07:34.583Z,1.20
2023-09-25T01:08:08.470Z,1.40
2023-09-25T01:08:44.114Z,1.60
2023-09-25T01:09:16.552Z,1.77
2023-09-25T01:10:11.373Z,1.50
2023-09-25T01:10:44.122Z,1.57
2023-09-25T01:11:19.125Z,1.37
2023-09-25T01:11:51.575Z,1.80
2023-09-25T01:12:23.966Z,1.70
2023-09-25T01:12:56.483Z,1.37
2023-09-25T01:13:32.221Z,1.90
2023-09-25T01:14:04.900Z,1.77
2023-09-25T01:14:37.259Z,1.70
2023-09-25T01:15:11.071Z,1.63
2023-09-25T01:15:49.513Z,1.60
2023-09-25T01:16:23.210Z,1.60
2023-09-25T01:16:55.639Z,1.63
2023-09-25T01:17:28.062Z,1.90
2023-09-25T01:18:04.487Z,1.90
2023-09-25T01:18:37.286Z,1.60
2023-09-25T01:19:11.266Z,1.70
2023-09-25T01:19:44.512Z,1.60
2023-09-25T01:20:20.347Z,1.43
2023-09-25T01:20:52.735Z,1.70
2023-09-25T01:21:26.112Z,1.70
2023-09-25T01:22:01.118Z,1.73
2023-09-25T01:22:33.969Z,1.70
2023-09-25T01:23:09.049Z,1.57
2023-09-25T01:23:41.565Z,1.20
2023-09-25T01:24:14.097Z,1.70
2023-09-25T01:24:47.188Z,1.70
2023-09-25T01:25:24.681Z,1.77
2023-09-25T01:25:57.062Z,1.63
2023-09-25T01:26:29.443Z,1.73
2023-09-25T01:27:02.496Z,1.73
2023-09-25T01:27:37.569Z,1.93
2023-09-25T01:28:10.883Z,1.53
2023-09-25T01:28:43.304Z,1.70
2023-09-25T01:29:19.390Z,1.60
2023-09-25T01:29:51.767Z,1.90
2023-09-25T01:30:25.180Z,1.60
2023-09-25T01:31:00.253Z,1.90
2023-09-25T01:31:32.701Z,1.70
2023-09-25T01:32:05.866Z,1.60
2023-09-25T01:32:39.156Z,1.47
2023-09-25T01:33:14.321Z,1.60
2023-09-25T01:33:46.833Z,2.00
2023-09-25T01:34:19.319Z,1.80
2023-09-25T01:34:51.720Z,1.60
2023-09-25T01:35:28.179Z,1.60
2023-09-25T01:36:00.715Z,1.67
2023-09-25T01:36:34.365Z,1.73
2023-09-25T01:37:09.374Z,1.50
2023-09-25T01:37:44.738Z,1.73
2023-09-25T01:38:17.106Z,1.40
2023-09-25T01:38:49.884Z,1.70
2023-09-25T01:39:22.618Z,1.50
2023-09-25T01:39:57.640Z,1.23
2023-09-25T01:40:30.078Z,1.73
2023-09-25T01:41:03.704Z,1.63
2023-09-25T01:41:38.683Z,1.83
2023-09-25T01:42:11.079Z,1.60
2023-09-25T01:42:44.031Z,1.80
2023-09-25T01:43:16.432Z,1.80
2023-09-25T01:43:52.850Z,1.83
2023-09-25T01:44:27.268Z,1.33
2023-09-25T01:44:59.969Z,1.50
2023-09-25T01:45:32.491Z,1.50
2023-09-25T01:46:07.657Z,1.40
2023-09-25T01:46:41.677Z,1.33
2023-09-25T01:47:14.549Z,1.40
2023-09-25T01:47:51.369Z,1.63
2023-09-25T01:48:26.866Z,1.90
2023-09-25T01:48:59.567Z,1.50
2023-09-25T01:49:33.780Z,1.80
2023-09-25T01:50:10.303Z,1.70
2023-09-25T01:50:45.321Z,1.63
2023-09-25T01:51:17.810Z,1.73
2023-09-25T01:51:50.701Z,1.60
2023-09-25T01:52:25.658Z,1.50
2023-09-25T01:53:01.800Z,1.33
2023-09-25T01:53:34.170Z,1.50
2023-09-25T01:54:06.970Z,1.77
2023-09-25T01:54:42.008Z,1.97
2023-09-25T01:55:14.420Z,1.50
2023-09-25T01:55:47.352Z,1.60
2023-09-25T01:56:22.378Z,1.13
2023-09-25T01:56:54.776Z,1.47
2023-09-25T01:57:27.239Z,1.30
2023-09-25T01:58:02.246Z,2.00
2023-09-25T01:58:34.624Z,1.67
2023-09-25T01:59:07.036Z,1.60
2023-09-25T01:59:39.456Z,1.40
2023-09-25T02:00:18.301Z,1.50
2023-09-25T02:00:50.804Z,1.40
2023-09-25T02:01:23.293Z,1.47
2023-09-25T02:01:58.305Z,1.40
2023-09-25T02:02:30.829Z,1.37
2023-09-25T02:03:03.803Z,1.33
2023-09-25T02:03:39.016Z,1.50
2023-09-25T02:04:12.177Z,1.57
2023-09-25T02:04:44.790Z,1.50
2023-09-25T02:05:17.700Z,1.60
2023-09-25T02:05:52.879Z,1.60
2023-09-25T02:06:25.272Z,1.50
2023-09-25T02:06:57.668Z,1.40
2023-09-25T02:07:33.488Z,1.40
2023-09-25T02:08:10.582Z,1.53
2023-09-25T02:08:42.939Z,1.33
2023-09-25T02:09:15.443Z,1.13
2023-09-25T02:09:48.027Z,1.50
2023-09-25T02:10:23.195Z,1.53
2023-09-25T02:10:55.631Z,1.60
2023-09-25T02:11:28.292Z,1.40
2023-09-25T02:12:00.690Z,1.80
2023-09-25T02:12:35.817Z,1.23
2023-09-25T02:13:08.311Z,1.47
2023-09-25T02:13:40.658Z,1.53
2023-09-25T02:14:13.377Z,1.60
2023-09-25T02:14:48.343Z,1.30
2023-09-25T02:15:21.659Z,1.33
2023-09-25T02:15:55.835Z,1.30
2023-09-25T02:16:31.061Z,1.37
2023-09-25T02:17:03.505Z,1.20
2023-09-25T02:17:38.634Z,1.53
2023-09-25T02:18:11.163Z,1.70
2023-09-25T02:18:46.388Z,1.73
2023-09-25T02:19:20.042Z,1.40
2023-09-25T02:19:53.751Z,1.13
2023-09-25T02:20:27.187Z,1.50
2023-09-25T02:21:02.148Z,1.40
2023-09-25T02:21:34.586Z,1.17
2023-09-25T02:22:08.030Z,1.00
2023-09-25T02:22:43.039Z,1.63
2023-09-25T02:23:17.997Z,1.23
2023-09-25T02:23:50.381Z,1.27
2023-09-25T02:24:23.153Z,1.50
2023-09-25T02:24:58.246Z,1.47
2023-09-25T02:25:32.960Z,1.30
2023-09-25T02:26:05.331Z,1.57
2023-09-25T02:26:37.729Z,1.00
2023-09-25T02:27:10.122Z,1.40
2023-09-25T02:27:45.266Z,1.30
2023-09-25T02:28:17.755Z,1.07
2023-09-25T02:28:50.349Z,1.20
2023-09-25T02:29:24.083Z,1.07
2023-09-25T02:29:59.443Z,1.37
2023-09-25T02:30:31.944Z,1.43
2023-09-25T02:31:04.482Z,1.30
2023-09-25T02:31:37.176Z,1.30
2023-09-25T02:32:13.102Z,1.33
2023-09-25T02:32:45.850Z,1.20
2023-09-25T02:33:18.425Z,1.53
2023-09-25T02:33:53.728Z,1.30
2023-09-25T02:34:26.102Z,1.10
2023-09-25T02:34:58.461Z,1.53
2023-09-25T02:35:33.428Z,1.17
2023-09-25T02:36:06.482Z,1.23
2023-09-25T02:36:38.918Z,1.30
2023-09-25T02:37:11.289Z,1.40
2023-09-25T02:37:48.842Z,1.60
2023-09-25T02:38:21.800Z,1.27
2023-09-25T02:38:54.241Z,1.40
2023-09-25T02:39:26.624Z,1.63
2023-09-25T02:40:01.665Z,1.30
2023-09-25T02:40:34.676Z,1.20
2023-09-25T02:41:07.036Z,1.23
2023-09-25T02:41:39.377Z,1.50
2023-09-25T02:42:14.377Z,1.53
2023-09-25T02:42:47.849Z,1.40
2023-09-25T02:43:20.621Z,1.60
2023-09-25T02:43:56.190Z,1.20
2023-09-25T02:44:28.549Z,1.40
2023-09-25T02:45:00.924Z,1.60
2023-09-25T02:45:36.186Z,1.50
2023-09-25T02:46:09.643Z,1.43
2023-09-25T02:46:42.079Z,1.13
2023-09-25T02:47:14.610Z,1.60
2023-09-25T02:47:49.998Z,1.40
2023-09-25T02:48:22.771Z,1.70
2023-09-25T02:48:55.270Z,1.13
2023-09-25T02:49:27.702Z,1.40
2023-09-25T02:50:02.681Z,1.40
2023-09-25T02:50:35.284Z,1.57
2023-09-25T02:51:07.703Z,1.40
2023-09-25T02:51:42.719Z,1.17
2023-09-25T02:52:15.163Z,1.50
2023-09-25T02:52:50.150Z,1.13
2023-09-25T02:53:26.772Z,1.43
2023-09-25T02:53:59.459Z,1.23
2023-09-25T02:54:32.409Z,1.50
2023-09-25T02:55:05.914Z,1.50
2023-09-25T02:55:40.876Z,1.30
2023-09-25T02:56:13.252Z,1.37
2023-09-25T02:56:47.493Z,1.30
2023-09-25T02:57:19.904Z,1.40
2023-09-25T02:57:54.871Z,1.30
2023-09-25T02:58:27.324Z,1.63
2023-09-25T02:58:59.822Z,1.57
2023-09-25T02:59:32.236Z,1.20
2023-09-25T03:00:12.979Z,1.30
2023-09-25T03:00:46.293Z,1.13
2023-09-25T03:01:18.709Z,1.20
2023-09-25T03:01:54.243Z,1.50
2023-09-25T03:02:27.712Z,1.27
2023-09-25T03:03:00.255Z,1.60
2023-09-25T03:03:32.820Z,1.47
2023-09-25T03:04:08.354Z,1.30
2023-09-25T03:04:40.890Z,1.43
2023-09-25T03:05:13.999Z,1.40
2023-09-25T03:05:46.728Z,1.43
2023-09-25T03:06:21.805Z,1.40
2023-09-25T03:06:55.993Z,1.20
2023-09-25T03:07:28.873Z,1.57
2023-09-25T03:08:10.169Z,1.30
2023-09-25T03:08:46.763Z,1.33
2023-09-25T03:09:19.214Z,1.10
2023-09-25T03:09:52.064Z,1.40
2023-09-25T03:10:24.440Z,1.20
2023-09-25T03:10:59.146Z,1.40
2023-09-25T03:11:36.623Z,1.60
2023-09-25T03:12:10.646Z,1.60
2023-09-25T03:12:47.062Z,1.23
2023-09-25T03:13:26.910Z,1.73
2023-09-25T03:13:59.486Z,1.27
2023-09-25T03:14:33.165Z,1.40
2023-09-25T03:15:06.998Z,1.43
2023-09-25T03:15:45.878Z,1.30
2023-09-25T03:16:20.707Z,1.40
2023-09-25T03:16:55.261Z,1.37
2023-09-25T03:17:35.590Z,1.53
2023-09-25T03:18:10.296Z,1.80
2023-09-25T03:18:44.529Z,1.50
2023-09-25T03:19:23.458Z,1.57
2023-09-25T03:19:58.988Z,1.60
2023-09-25T03:20:34.540Z,1.90
2023-09-25T03:21:10.501Z,2.07
2023-09-25T03:21:46.145Z,3.60
2023-09-25T03:22:20.815Z,3.20
2023-09-25T03:22:56.391Z,2.63
2023-09-25T03:23:36.296Z,1.77
2023-09-25T03:24:09.679Z,2.10
2023-09-25T03:24:42.164Z,2.80
2023-09-25T03:25:17.901Z,3.13
2023-09-25T03:25:53.602Z,3.07
2023-09-25T03:26:28.027Z,2.13
2023-09-25T03:27:05.314Z,2.10
2023-09-25T03:27:37.796Z,1.93
2023-09-25T03:28:12.993Z,2.30
2023-09-25T03:28:46.076Z,2.20
2023-09-25T03:29:24.838Z,1.93
2023-09-25T03:29:59.901Z,1.90
2023-09-25T03:30:36.729Z,1.60
2023-09-25T03:31:10.830Z,1.33
2023-09-25T03:31:46.698Z,1.70
2023-09-25T03:32:21.386Z,1.80
2023-09-25T03:32:56.896Z,1.73
2023-09-25T03:33:32.522Z,1.60
2023-09-25T03:34:05.791Z,1.20
2023-09-25T03:34:45.219Z,1.50
2023-09-25T03:35:21.861Z,1.60
2023-09-25T03:35:54.448Z,1.50
2023-09-25T03:36:31.835Z,1.20
2023-09-25T03:37:08.995Z,1.33
2023-09-25T03:37:43.772Z,1.50
2023-09-25T03:38:18.818Z,1.40
2023-09-25T03:38:55.150Z,1.40
2023-09-25T03:39:27.563Z,1.00
2023-09-25T03:40:01.328Z,1.37
2023-09-25T03:40:41.640Z,1.57
2023-09-25T03:41:14.837Z,1.50
2023-09-25T03:41:47.564Z,1.40
2023-09-25T03:42:23.590Z,1.50
2023-09-25T03:42:56.118Z,1.20
2023-09-25T03:43:28.493Z,1.27
2023-09-25T03:44:00.946Z,1.23
2023-09-25T03:44:37.456Z,1.13
2023-09-25T03:45:10.748Z,1.37
2023-09-25T03:45:43.325Z,1.33
2023-09-25T03:46:15.745Z,1.37
2023-09-25T03:46:50.754Z,1.20
2023-09-25T03:47:23.160Z,1.00
2023-09-25T03:47:55.871Z,1.60
2023-09-25T03:48:30.939Z,1.47
2023-09-25T03:49:07.482Z,1.50
2023-09-25T03:49:40.877Z,1.67
2023-09-25T03:50:13.428Z,1.20
2023-09-25T03:50:48.379Z,1.10
2023-09-25T03:51:20.764Z,1.30
2023-09-25T03:51:56.571Z,1.20
2023-09-25T03:52:30.243Z,1.23
2023-09-25T03:53:06.644Z,1.50
2023-09-25T03:53:39.126Z,1.17
2023-09-25T03:54:15.497Z,1.73
2023-09-25T03:54:47.902Z,1.50
2023-09-25T03:55:27.394Z,1.60
2023-09-25T03:56:01.372Z,1.33
2023-09-25T03:56:35.706Z,1.50
2023-09-25T03:57:08.254Z,1.37
2023-09-25T03:57:44.857Z,1.40
2023-09-25T03:58:17.798Z,1.40
2023-09-25T03:58:51.963Z,1.33
2023-09-25T03:59:25.260Z,1.53
2023-09-25T03:59:57.890Z,1.60
2023-09-25T04:00:34.526Z,1.40
2023-09-25T04:01:07.006Z,1.40
2023-09-25T04:01:39.498Z,1.40
2023-09-25T04:02:11.886Z,1.40
2023-09-25T04:02:46.865Z,1.30
2023-09-25T04:03:19.796Z,1.40
2023-09-25T04:03:52.703Z,1.03
2023-09-25T04:04:25.368Z,1.30
2023-09-25T04:05:00.436Z,1.20
2023-09-25T04:05:33.820Z,1.40
2023-09-25T04:06:06.414Z,1.57
2023-09-25T04:06:41.456Z,1.30
2023-09-25T04:07:16.910Z,1.33
2023-09-25T04:07:49.484Z,1.37
2023-09-25T04:08:27.324Z,1.33
2023-09-25T04:09:00.026Z,1.13
2023-09-25T04:09:38.052Z,1.60
2023-09-25T04:10:16.117Z,1.37
2023-09-25T04:10:51.416Z,1.33
2023-09-25T04:11:23.799Z,1.20
2023-09-25T04:11:58.815Z,1.53
2023-09-25T04:12:34.286Z,1.40
2023-09-25T04:13:09.273Z,1.30
2023-09-25T04:13:46.363Z,1.73
2023-09-25T04:14:21.814Z,1.10
2023-09-25T04:14:57.619Z,1.77
2023-09-25T04:15:30.004Z,1.13
2023-09-25T04:16:04.267Z,1.40
2023-09-25T04:16:36.757Z,1.40
2023-09-25T04:17:17.092Z,1.67
2023-09-25T04:17:52.071Z,1.50
2023-09-25T04:18:25.695Z,1.33
2023-09-25T04:19:06.066Z,1.57
2023-09-25T04:19:40.336Z,1.30
2023-09-25T04:20:19.147Z,1.17
2023-09-25T04:20:51.971Z,1.50
2023-09-25T04:21:27.061Z,1.57
2023-09-25T04:22:03.215Z,1.67
2023-09-25T04:22:39.253Z,1.50
2023-09-25T04:23:15.054Z,1.40
2023-09-25T04:23:47.442Z,1.13
2023-09-25T04:24:20.934Z,1.37
2023-09-25T04:24:59.194Z,1.50
2023-09-25T04:25:35.563Z,1.20
2023-09-25T04:26:09.628Z,1.10
2023-09-25T04:26:43.918Z,1.57
2023-09-25T04:27:17.599Z,1.50
2023-09-25T04:27:56.618Z,1.30
2023-09-25T04:28:32.147Z,1.30
2023-09-25T04:29:06.408Z,1.80
2023-09-25T04:29:43.893Z,1.27
2023-09-25T04:30:17.087Z,1.30
2023-09-25T04:30:53.443Z,1.50
2023-09-25T04:31:26.848Z,1.17
2023-09-25T04:32:04.840Z,1.37
2023-09-25T04:32:38.893Z,1.50
2023-09-25T04:33:12.848Z,1.23
2023-09-25T04:33:46.802Z,1.37
2023-09-25T04:34:23.730Z,1.47
2023-09-25T04:34:59.892Z,1.47
2023-09-25T04:35:38.297Z,1.40
2023-09-25T04:36:14.421Z,1.60
2023-09-25T04:36:47.598Z,1.70
2023-09-25T04:37:24.114Z,1.50
2023-09-25T04:37:58.447Z,1.53
2023-09-25T04:38:36.588Z,1.73
2023-09-25T04:39:11.824Z,1.20
2023-09-25T04:39:44.406Z,1.30
2023-09-25T04:40:25.641Z,1.43
2023-09-25T04:41:01.606Z,1.20
2023-09-25T04:41:33.958Z,1.50
2023-09-25T04:42:06.887Z,1.23
2023-09-25T04:42:39.290Z,1.13
2023-09-25T04:43:19.025Z,1.30
2023-09-25T04:43:54.431Z,1.23
2023-09-25T04:44:29.563Z,1.30
2023-09-25T04:45:02.450Z,1.30
2023-09-25T04:45:40.157Z,1.17
2023-09-25T04:46:13.629Z,1.30
2023-09-25T04:46:49.141Z,1.57
2023-09-25T04:47:26.761Z,1.53
2023-09-25T04:48:01.888Z,1.40
2023-09-25T04:48:37.453Z,1.33
2023-09-25T04:49:14.173Z,1.47
2023-09-25T04:49:48.006Z,1.50
2023-09-25T04:50:25.972Z,1.50
2023-09-25T04:50:58.486Z,1.60
2023-09-25T04:51:31.838Z,1.50
2023-09-25T04:52:07.678Z,1.50
2023-09-25T04:52:43.927Z,1.30
2023-09-25T04:53:18.700Z,1.50
2023-09-25T04:53:54.490Z,1.37
2023-09-25T04:54:32.742Z,1.63
2023-09-25T04:55:07.118Z,1.60
2023-09-25T04:55:43.401Z,1.47
2023-09-25T04:56:23.969Z,1.37
2023-09-25T04:56:56.331Z,1.30
2023-09-25T04:57:28.875Z,1.50
2023-09-25T04:58:05.982Z,1.60
2023-09-25T04:58:40.306Z,1.60
2023-09-25T04:59:14.899Z,2.07
2023-09-25T04:59:47.370Z,2.50
2023-09-25T05:00:26.254Z,2.23
2023-09-25T05:01:03.775Z,2.10
2023-09-25T05:01:36.330Z,2.00
2023-09-25T05:02:10.877Z,2.20
2023-09-25T05:02:49.731Z,2.00
2023-09-25T05:03:22.180Z,1.60
2023-09-25T05:03:54.698Z,1.60
2023-09-25T05:04:28.294Z,1.87
2023-09-25T05:05:05.078Z,1.53
2023-09-25T05:05:38.145Z,1.50
2023-09-25T05:06:15.751Z,2.10
2023-09-25T05:06:50.808Z,1.50
2023-09-25T05:07:27.430Z,1.93
2023-09-25T05:08:02.773Z,1.87
2023-09-25T05:08:40.379Z,1.47
2023-09-25T05:09:12.962Z,1.87
2023-09-25T05:09:45.341Z,1.70
2023-09-25T05:10:18.918Z,2.13
2023-09-25T05:10:56.863Z,3.20
2023-09-25T05:11:29.249Z,2.70
2023-09-25T05:12:04.498Z,1.67
2023-09-25T05:12:37.101Z,2.40
2023-09-25T05:13:15.531Z,1.70
2023-09-25T05:13:47.949Z,2.20
2023-09-25T05:14:25.958Z,2.00
2023-09-25T05:15:05.243Z,2.03
2023-09-25T05:15:40.458Z,2.00
2023-09-25T05:16:13.076Z,2.40
2023-09-25T05:16:45.511Z,2.03
2023-09-25T05:17:17.910Z,1.97
2023-09-25T05:17:53.070Z,2.27
2023-09-25T05:18:25.528Z,1.97
2023-09-25T05:18:59.479Z,2.10
2023-09-25T05:19:34.441Z,2.07
2023-09-25T05:20:11.974Z,2.10
2023-09-25T05:20:44.368Z,1.73
2023-09-25T05:21:19.346Z,1.90
2023-09-25T05:21:51.787Z,2.03
2023-09-25T05:22:24.335Z,1.70
2023-09-25T05:22:58.044Z,2.00
2023-09-25T05:23:33.256Z,1.70
2023-09-25T05:24:07.307Z,1.80
2023-09-25T05:24:39.661Z,1.70
2023-09-25T05:25:14.104Z,1.60
2023-09-25T05:25:49.124Z,1.40
2023-09-25T05:26:24.067Z,1.43
2023-09-25T05:26:56.422Z,1.47
2023-09-25T05:27:28.795Z,1.60
2023-09-25T05:28:03.915Z,1.77
2023-09-25T05:28:36.279Z,1.80
2023-09-25T05:29:08.651Z,1.60
2023-09-25T05:29:41.025Z,1.70
2023-09-25T05:30:14.560Z,1.73
2023-09-25T05:30:50.462Z,1.30
2023-09-25T05:31:23.301Z,1.37
2023-09-25T05:31:55.728Z,1.50
2023-09-25T05:32:28.089Z,1.60
2023-09-25T05:33:03.106Z,1.63
2023-09-25T05:33:35.590Z,1.57
2023-09-25T05:34:07.966Z,1.80
2023-09-25T05:34:40.382Z,1.57
2023-09-25T05:35:12.938Z,1.87
2023-09-25T05:35:49.419Z,1.80
2023-09-25T05:36:23.578Z,1.70
2023-09-25T05:36:55.934Z,1.50
2023-09-25T05:37:28.377Z,1.73
2023-09-25T05:38:03.324Z,1.50
2023-09-25T05:38:35.807Z,1.40
2023-09-25T05:39:09.807Z,1.73
2023-09-25T05:39:42.181Z,1.40
2023-09-25T05:40:17.833Z,1.60
2023-09-25T05:40:50.235Z,1.40
2023-09-25T05:41:25.214Z,1.43
2023-09-25T05:42:00.193Z,1.67
2023-09-25T05:42:33.338Z,1.70
2023-09-25T05:43:06.025Z,1.50
2023-09-25T05:43:40.029Z,1.80
2023-09-25T05:44:15.498Z,2.20
2023-09-25T05:44:47.871Z,1.90
2023-09-25T05:45:22.222Z,1.57
2023-09-25T05:45:54.707Z,1.60
2023-09-25T05:46:29.796Z,1.80
2023-09-25T05:47:02.187Z,1.60
2023-09-25T05:47:35.056Z,1.70
2023-09-25T05:48:10.655Z,1.60
2023-09-25T05:48:43.072Z,1.70
2023-09-25T05:49:15.853Z,1.90
2023-09-25T05:49:48.221Z,2.00
2023-09-25T05:50:23.218Z,2.10
2023-09-25T05:50:55.580Z,1.67
2023-09-25T05:51:28.049Z,1.73
2023-09-25T05:52:00.453Z,1.73
2023-09-25T05:52:35.404Z,1.60
2023-09-25T05:53:07.750Z,1.93
2023-09-25T05:53:40.096Z,1.70
2023-09-25T05:54:12.480Z,1.60
2023-09-25T05:54:47.861Z,1.83
2023-09-25T05:55:20.393Z,1.67
2023-09-25T05:55:52.782Z,1.40
2023-09-25T05:56:30.009Z,1.50
2023-09-25T05:57:07.052Z,1.77
2023-09-25T05:57:39.891Z,1.70
2023-09-25T05:58:12.336Z,1.90
2023-09-25T05:58:44.728Z,1.57
2023-09-25T05:59:20.026Z,1.50
2023-09-25T05:59:52.399Z,1.20
2023-09-25T06:00:24.827Z,1.93
2023-09-25T06:00:58.150Z,2.20
2023-09-25T06:01:33.246Z,2.00
2023-09-25T06:02:05.640Z,1.83
2023-09-25T06:02:38.144Z,2.17
2023-09-25T06:03:10.660Z,2.47
2023-09-25T06:03:45.887Z,2.27
2023-09-25T06:04:19.206Z,2.37
2023-09-25T06:04:52.415Z,2.10
2023-09-25T06:05:27.503Z,1.80
2023-09-25T06:05:59.922Z,2.13
2023-09-25T06:06:32.360Z,1.67
2023-09-25T06:07:05.125Z,1.90
2023-09-25T06:07:40.095Z,1.90
2023-09-25T06:08:12.652Z,1.90
2023-09-25T06:08:45.011Z,1.57
2023-09-25T06:09:20.710Z,1.80
2023-09-25T06:09:53.127Z,1.63
2023-09-25T06:10:25.504Z,1.53
2023-09-25T06:11:04.223Z,1.87
2023-09-25T06:11:43.305Z,1.33
2023-09-25T06:12:16.773Z,1.90
2023-09-25T06:12:49.325Z,1.67
2023-09-25T06:13:24.526Z,1.47
2023-09-25T06:13:57.300Z,1.60
2023-09-25T06:14:29.734Z,1.73
2023-09-25T06:15:06.696Z,1.80
2023-09-25T06:15:39.103Z,1.43
2023-09-25T06:16:11.535Z,2.00
2023-09-25T06:16:44.386Z,1.80
2023-09-25T06:17:20.187Z,1.70
2023-09-25T06:17:52.603Z,1.80
2023-09-25T06:18:25.076Z,1.90
2023-09-25T06:19:00.190Z,1.70
2023-09-25T06:19:32.613Z,1.90
2023-09-25T06:20:06.360Z,1.40
2023-09-25T06:20:40.084Z,1.67
2023-09-25T06:21:17.659Z,1.50
2023-09-25T06:21:50.111Z,1.90
2023-09-25T06:22:22.929Z,1.50
2023-09-25T06:22:55.429Z,1.60
2023-09-25T06:23:30.379Z,1.30
2023-09-25T06:24:03.095Z,1.50
2023-09-25T06:24:35.471Z,1.60
2023-09-25T06:25:12.689Z,1.83
2023-09-25T06:25:49.026Z,1.63
2023-09-25T06:26:21.382Z,1.77
2023-09-25T06:26:57.005Z,1.50
2023-09-25T06:27:32.031Z,1.40
2023-09-25T06:28:05.354Z,1.80
2023-09-25T06:28:39.264Z,2.00
2023-09-25T06:29:14.222Z,1.57
2023-09-25T06:29:46.598Z,1.63
2023-09-25T06:30:21.233Z,1.80
2023-09-25T06:30:53.967Z,1.70
2023-09-25T06:31:29.202Z,2.00
2023-09-25T06:32:02.276Z,1.27
2023-09-25T06:32:35.036Z,1.57
2023-09-25T06:33:11.359Z,1.80
2023-09-25T06:33:44.029Z,1.20
2023-09-25T06:34:16.913Z,1.60
2023-09-25T06:34:49.427Z,1.33
2023-09-25T06:35:24.750Z,1.67
2023-09-25T06:35:57.262Z,1.40
2023-09-25T06:36:29.667Z,1.80
2023-09-25T06:37:04.670Z,1.67
2023-09-25T06:37:39.536Z,1.67
2023-09-25T06:38:12.583Z,1.80
2023-09-25T06:38:45.070Z,1.97
2023-09-25T06:39:20.160Z,1.90
2023-09-25T06:39:52.585Z,1.50
2023-09-25T06:40:25.026Z,1.80
2023-09-25T06:40:57.457Z,2.00
2023-09-25T06:41:32.441Z,1.80
2023-09-25T06:42:07.492Z,2.17
2023-09-25T06:42:40.575Z,2.10
2023-09-25T06:43:13.750Z,2.03
2023-09-25T06:43:48.687Z,1.70
2023-09-25T06:44:21.090Z,2.00
2023-09-25T06:44:53.488Z,2.30
2023-09-25T06:45:25.951Z,1.60
2023-09-25T06:46:01.010Z,1.83
2023-09-25T06:46:33.802Z,1.90
2023-09-25T06:47:06.264Z,2.20
2023-09-25T06:47:38.972Z,1.90
2023-09-25T06:48:14.069Z,1.77
2023-09-25T06:48:52.114Z,2.30
2023-09-25T06:49:24.890Z,1.80
2023-09-25T06:49:57.513Z,1.83
2023-09-25T06:50:32.494Z,2.20
2023-09-25T06:51:04.914Z,1.83
2023-09-25T06:51:37.321Z,1.80
2023-09-25T06:52:09.774Z,1.90
2023-09-25T06:52:44.772Z,2.10
2023-09-25T06:53:17.256Z,2.10
2023-09-25T06:53:49.623Z,1.87
2023-09-25T06:54:24.586Z,2.40
2023-09-25T06:54:57.764Z,2.23
2023-09-25T06:55:30.210Z,2.00
2023-09-25T06:56:02.643Z,2.00
2023-09-25T06:56:37.632Z,2.30
2023-09-25T06:57:12.765Z,2.50
2023-09-25T06:57:45.283Z,2.03
2023-09-25T06:58:17.765Z,2.20
2023-09-25T06:58:53.377Z,1.97
2023-09-25T06:59:25.840Z,2.10
2023-09-25T06:59:58.225Z,2.17
2023-09-25T07:00:39.336Z,2.03
2023-09-25T07:01:25.744Z,2.10
2023-09-25T07:01:58.289Z,2.00
2023-09-25T07:02:32.584Z,1.93
2023-09-25T07:03:05.633Z,2.50
2023-09-25T07:03:40.916Z,2.10
2023-09-25T07:04:13.663Z,2.20
2023-09-25T07:04:48.867Z,2.30
2023-09-25T07:05:24.115Z,2.00
2023-09-25T07:05:57.382Z,2.30
2023-09-25T07:06:30.651Z,2.50
2023-09-25T07:07:05.591Z,2.23
2023-09-25T07:07:41.287Z,2.30
2023-09-25T07:08:13.673Z,2.10
2023-09-25T07:08:46.202Z,2.13
2023-09-25T07:09:23.398Z,2.40
2023-09-25T07:09:56.872Z,2.40
2023-09-25T07:10:29.429Z,2.23
2023-09-25T07:11:02.077Z,2.40
2023-09-25T07:11:37.044Z,2.70
2023-09-25T07:12:15.889Z,2.10
2023-09-25T07:12:48.348Z,2.50
2023-09-25T07:13:24.577Z,2.40
2023-09-25T07:13:57.325Z,2.00
2023-09-25T07:14:29.815Z,2.30
2023-09-25T07:15:05.195Z,2.20
2023-09-25T07:15:37.697Z,2.70
2023-09-25T07:16:12.433Z,2.43
2023-09-25T07:16:45.132Z,2.00
2023-09-25T07:17:20.314Z,2.40
2023-09-25T07:17:52.739Z,2.30
2023-09-25T07:18:25.298Z,2.70
2023-09-25T07:18:57.792Z,2.33
2023-09-25T07:19:32.822Z,2.20
2023-09-25T07:20:07.030Z,2.37
2023-09-25T07:20:39.411Z,2.00
2023-09-25T07:21:11.790Z,2.10
2023-09-25T07:21:46.846Z,2.13
2023-09-25T07:22:19.704Z,2.40
2023-09-25T07:22:52.527Z,2.00
2023-09-25T07:23:24.998Z,1.90
2023-09-25T07:23:59.948Z,2.00
2023-09-25T07:24:32.426Z,2.80
2023-09-25T07:25:05.796Z,2.27
2023-09-25T07:25:38.537Z,2.20
2023-09-25T07:26:16.975Z,2.10
2023-09-25T07:26:49.433Z,2.17
2023-09-25T07:27:24.647Z,2.30
2023-09-25T07:27:57.435Z,2.50
2023-09-25T07:28:32.986Z,2.07
2023-09-25T07:29:05.372Z,2.20
2023-09-25T07:29:42.218Z,2.10
2023-09-25T07:30:17.573Z,2.40
2023-09-25T07:30:50.287Z,2.10
2023-09-25T07:31:24.467Z,2.33
2023-09-25T07:31:57.034Z,2.43
2023-09-25T07:32:33.985Z,2.27
2023-09-25T07:33:06.385Z,2.30
2023-09-25T07:33:38.792Z,2.20
2023-09-25T07:34:11.166Z,1.97